Terminal Aerodrome Forecast
Issued by NWS

Home | Current Version | Previous Version | Text Only | Print | Product List | Glossary On
Versions: 1 2 3 4 5 6 7 8 9 10 11 12 13
758
FTUS46 KSGX 180227 AAA
TAFSNA
TAF AMD
KSNA 180227Z 1802/1824 VRB04KT P6SM BKN008
     FM180500 VRB04KT P6SM SCT008
     FM181500 23005KT P6SM SKC=

USA.gov is the U.S. government's official web portal to all federal, state and local government web resources and services.